Dubois, Idaho
Current Conditions -  °F | °C
As of 9:53 AM on Friday 28 Nov 2014 (Local Time) from KRXE Reporting Station
Few Clouds Few Clouds  
Wind Chill: 36°   Ceiling: Unl
Heat Index: 42°   Visibility: 10mi
Dew Point: 26°   Wind: 12mph
Humidity: 53%   Direction: 200°SSW
Pressure: 29.87"   Gusts: NA
Location:  44.18°N, 112.23°W
Report Text: KRXE 281653Z AUTO 20010KT 10SM FEW120 06/M03 A2987 RMK AO2 SLP110 T00561033
Loading
Personal Weather Stations






























Interactive Weather Map New forecast layout! Learn more

10-Day Weather Forecast

Advertisements
Track Severe Weather on mobile